createdAt,value
2018-05-26T00:00:42.915Z,1026.28
2018-05-26T00:02:09.835Z,1026.27
2018-05-26T00:03:37.301Z,1026.29
2018-05-26T00:05:04.149Z,1026.27
2018-05-26T00:06:31.478Z,1026.23
2018-05-26T00:07:58.699Z,1026.26
2018-05-26T00:09:25.619Z,1026.24
2018-05-26T00:10:52.986Z,1026.22
2018-05-26T00:12:20.287Z,1026.21
2018-05-26T00:13:47.583Z,1026.20
2018-05-26T00:15:14.227Z,1026.19
2018-05-26T00:16:40.893Z,1026.19
2018-05-26T00:18:07.887Z,1026.19
2018-05-26T00:19:35.009Z,1026.21
2018-05-26T00:21:02.432Z,1026.20
2018-05-26T00:22:29.779Z,1026.19
2018-05-26T00:23:57.192Z,1026.16
2018-05-26T00:25:24.690Z,1026.17
2018-05-26T00:26:51.514Z,1026.15
2018-05-26T00:28:18.824Z,1026.16
2018-05-26T00:29:46.291Z,1026.17
2018-05-26T00:31:13.641Z,1026.19
2018-05-26T00:32:40.535Z,1026.15
2018-05-26T00:34:07.437Z,1026.15
2018-05-26T00:35:34.772Z,1026.13
2018-05-26T00:37:02.166Z,1026.14
2018-05-26T00:38:29.160Z,1026.19
2018-05-26T00:39:56.722Z,1026.17
2018-05-26T00:41:24.047Z,1026.17
2018-05-26T00:42:51.288Z,1026.17
2018-05-26T00:44:18.608Z,1026.21
2018-05-26T00:45:45.306Z,1026.24
2018-05-26T00:47:12.755Z,1026.23
2018-05-26T00:48:39.837Z,1026.24
2018-05-26T00:50:07.116Z,1026.28
2018-05-26T00:51:34.312Z,1026.30
2018-05-26T00:53:01.584Z,1026.29
2018-05-26T00:54:28.882Z,1026.26
2018-05-26T00:55:56.204Z,1026.27
2018-05-26T00:57:23.078Z,1026.28
2018-05-26T00:58:50.319Z,1026.29
2018-05-26T01:00:17.470Z,1026.28
2018-05-26T01:01:44.632Z,1026.29
2018-05-26T01:03:11.592Z,1026.29
2018-05-26T01:04:38.288Z,1026.28
2018-05-26T01:06:05.436Z,1026.28
2018-05-26T01:07:32.830Z,1026.32
2018-05-26T01:09:00.259Z,1026.28
2018-05-26T01:10:27.526Z,1026.26
2018-05-26T01:11:54.704Z,1026.26
2018-05-26T01:13:22.124Z,1026.24
2018-05-26T01:14:49.550Z,1026.24
2018-05-26T01:16:16.825Z,1026.28
2018-05-26T01:17:44.317Z,1026.31
2018-05-26T01:19:11.736Z,1026.33
2018-05-26T01:20:38.570Z,1026.32
2018-05-26T01:22:05.301Z,1026.33
2018-05-26T01:23:32.792Z,1026.29
2018-05-26T01:25:00.040Z,1026.32
2018-05-26T01:26:27.354Z,1026.33
2018-05-26T01:27:54.313Z,1026.31
2018-05-26T01:29:21.626Z,1026.31
2018-05-26T01:30:48.964Z,1026.31
2018-05-26T01:32:16.418Z,1026.28
2018-05-26T01:33:43.696Z,1026.32
2018-05-26T01:35:10.966Z,1026.31
2018-05-26T01:36:38.441Z,1026.29
2018-05-26T01:38:05.736Z,1026.29
2018-05-26T01:39:33.224Z,1026.25
2018-05-26T01:40:59.953Z,1026.26
2018-05-26T01:42:27.319Z,1026.29
2018-05-26T01:43:54.557Z,1026.28
2018-05-26T01:45:21.635Z,1026.27
2018-05-26T01:46:49.046Z,1026.23
2018-05-26T01:48:16.545Z,1026.25
2018-05-26T01:49:43.625Z,1026.28
2018-05-26T01:51:11.180Z,1026.27
2018-05-26T01:52:37.846Z,1026.26
2018-05-26T01:54:04.511Z,1026.27
2018-05-26T01:55:31.201Z,1026.27
2018-05-26T01:56:58.560Z,1026.26
2018-05-26T01:58:30.450Z,1026.25
2018-05-26T01:59:52.941Z,1026.27
2018-05-26T02:01:19.600Z,1026.25
2018-05-26T02:02:46.820Z,1026.25
2018-05-26T02:04:14.174Z,1026.28
2018-05-26T02:05:41.575Z,1026.33
2018-05-26T02:07:08.755Z,1026.35
2018-05-26T02:08:36.280Z,1026.39
2018-05-26T02:10:03.362Z,1026.42
2018-05-26T02:11:30.425Z,1026.42
2018-05-26T02:12:57.760Z,1026.44
2018-05-26T02:14:24.980Z,1026.38
2018-05-26T02:15:52.219Z,1026.38
2018-05-26T02:17:19.706Z,1026.35
2018-05-26T02:18:47.006Z,1026.34
2018-05-26T02:20:14.513Z,1026.39
2018-05-26T02:21:41.258Z,1026.37
2018-05-26T02:23:08.578Z,1026.40
2018-05-26T02:24:35.925Z,1026.43
2018-05-26T02:26:03.929Z,1026.46
2018-05-26T02:27:30.177Z,1026.45
2018-05-26T02:28:57.252Z,1026.43
2018-05-26T02:30:24.407Z,1026.44
2018-05-26T02:31:51.316Z,1026.40
2018-05-26T02:33:18.742Z,1026.41
2018-05-26T02:34:46.071Z,1026.39
2018-05-26T02:36:13.510Z,1026.43
2018-05-26T02:37:40.999Z,1026.45
2018-05-26T02:39:08.198Z,1026.49
2018-05-26T02:40:34.918Z,1026.54
2018-05-26T02:42:02.138Z,1026.58
2018-05-26T02:43:29.630Z,1026.58
2018-05-26T02:44:56.975Z,1026.54
2018-05-26T02:46:24.197Z,1026.51
2018-05-26T02:47:51.448Z,1026.49
2018-05-26T02:49:18.460Z,1026.48
2018-05-26T02:50:45.773Z,1026.48
2018-05-26T02:52:12.648Z,1026.43
2018-05-26T02:53:39.397Z,1026.40
2018-05-26T02:55:06.676Z,1026.39
2018-05-26T02:56:34.134Z,1026.40
2018-05-26T02:58:01.432Z,1026.37
2018-05-26T02:59:28.652Z,1026.35
2018-05-26T03:00:55.940Z,1026.34
2018-05-26T03:02:23.191Z,1026.37
2018-05-26T03:03:50.875Z,1026.39
2018-05-26T03:05:17.378Z,1026.39
2018-05-26T03:06:44.758Z,1026.42
2018-05-26T03:08:11.770Z,1026.43
2018-05-26T03:09:39.134Z,1026.46
2018-05-26T03:11:06.507Z,1026.50
2018-05-26T03:12:33.768Z,1026.48
2018-05-26T03:14:01.020Z,1026.49
2018-05-26T03:15:27.823Z,1026.48
2018-05-26T03:16:54.536Z,1026.46
2018-05-26T03:18:21.655Z,1026.44
2018-05-26T03:19:48.188Z,1026.43
2018-05-26T03:21:15.686Z,1026.43
2018-05-26T03:22:42.411Z,1026.43
2018-05-26T03:24:09.323Z,1026.43
2018-05-26T03:25:36.374Z,1026.43
2018-05-26T03:27:03.507Z,1026.45
2018-05-26T03:28:30.624Z,1026.49
2018-05-26T03:29:57.912Z,1026.54
2018-05-26T03:31:25.371Z,1026.57
2018-05-26T03:32:52.605Z,1026.57
2018-05-26T03:34:20.000Z,1026.56
2018-05-26T03:35:46.846Z,1026.60
2018-05-26T03:37:14.247Z,1026.60
2018-05-26T03:38:41.448Z,1026.61
2018-05-26T03:40:07.988Z,1026.60
2018-05-26T03:41:34.824Z,1026.62
2018-05-26T03:43:02.006Z,1026.63
2018-05-26T03:44:29.048Z,1026.61
2018-05-26T03:45:56.138Z,1026.60
2018-05-26T03:47:22.945Z,1026.65
2018-05-26T03:48:50.343Z,1026.68
2018-05-26T03:50:17.114Z,1026.67
2018-05-26T03:51:44.540Z,1026.65
2018-05-26T03:53:12.116Z,1026.60
2018-05-26T03:54:39.022Z,1026.60
2018-05-26T03:56:06.154Z,1026.59
2018-05-26T03:57:32.872Z,1026.58
2018-05-26T03:59:00.305Z,1026.58
2018-05-26T04:00:27.852Z,1026.58
2018-05-26T04:01:55.020Z,1026.57
2018-05-26T04:03:22.342Z,1026.50
2018-05-26T04:04:49.883Z,1026.51
2018-05-26T04:06:17.338Z,1026.49
2018-05-26T04:07:44.125Z,1026.47
2018-05-26T04:09:11.212Z,1026.47
2018-05-26T04:10:38.723Z,1026.46
2018-05-26T04:12:06.033Z,1026.46
2018-05-26T04:13:33.076Z,1026.46
2018-05-26T04:15:00.500Z,1026.47
2018-05-26T04:16:27.750Z,1026.47
2018-05-26T04:17:55.111Z,1026.48
2018-05-26T04:19:22.394Z,1026.44
2018-05-26T04:20:49.746Z,1026.45
2018-05-26T04:22:17.108Z,1026.45
2018-05-26T04:23:44.516Z,1026.44
2018-05-26T04:25:12.083Z,1026.42
2018-05-26T04:26:39.273Z,1026.43
2018-05-26T04:28:06.801Z,1026.44
2018-05-26T04:29:34.266Z,1026.44
2018-05-26T04:31:01.613Z,1026.43
2018-05-26T04:32:28.774Z,1026.43
2018-05-26T04:33:56.198Z,1026.44
2018-05-26T04:35:23.698Z,1026.45
2018-05-26T04:36:51.003Z,1026.42
2018-05-26T04:38:18.178Z,1026.41
2018-05-26T04:39:45.091Z,1026.45
2018-05-26T04:41:12.702Z,1026.46
2018-05-26T04:42:40.091Z,1026.52
2018-05-26T04:44:07.445Z,1026.52
2018-05-26T04:45:34.965Z,1026.50
2018-05-26T04:47:02.333Z,1026.52
2018-05-26T04:48:29.767Z,1026.53
2018-05-26T04:49:57.029Z,1026.55
2018-05-26T04:51:24.203Z,1026.58
2018-05-26T04:52:51.371Z,1026.56
2018-05-26T04:54:18.769Z,1026.52
2018-05-26T04:55:45.543Z,1026.48
2018-05-26T04:57:12.815Z,1026.47
2018-05-26T04:58:39.919Z,1026.46
2018-05-26T05:00:07.301Z,1026.48
2018-05-26T05:01:34.842Z,1026.47
2018-05-26T05:03:02.142Z,1026.45
2018-05-26T05:04:29.698Z,1026.46
2018-05-26T05:05:56.616Z,1026.49
2018-05-26T05:07:23.920Z,1026.50
2018-05-26T05:08:51.302Z,1026.51
2018-05-26T05:10:18.763Z,1026.53
2018-05-26T05:11:46.109Z,1026.51
2018-05-26T05:13:14.484Z,1026.53
2018-05-26T05:14:40.618Z,1026.55
2018-05-26T05:16:08.090Z,1026.55
2018-05-26T05:17:35.587Z,1026.63
2018-05-26T05:19:02.955Z,1026.63
2018-05-26T05:20:30.059Z,1026.65
2018-05-26T05:21:57.210Z,1026.66
2018-05-26T05:23:24.495Z,1026.57
2018-05-26T05:24:51.661Z,1026.57
2018-05-26T05:26:18.985Z,1026.60
2018-05-26T05:27:45.832Z,1026.63
2018-05-26T05:29:13.004Z,1026.61
2018-05-26T05:30:40.422Z,1026.58
2018-05-26T05:32:07.968Z,1026.53
2018-05-26T05:33:35.097Z,1026.50
2018-05-26T05:35:01.926Z,1026.49
2018-05-26T05:36:29.077Z,1026.46
2018-05-26T05:37:56.472Z,1026.48
2018-05-26T05:39:23.716Z,1026.51
2018-05-26T05:40:51.371Z,1026.54
2018-05-26T05:42:18.431Z,1026.57
2018-05-26T05:43:45.729Z,1026.55
2018-05-26T05:45:13.211Z,1026.50
2018-05-26T05:46:40.375Z,1026.50
2018-05-26T05:48:07.805Z,1026.54
2018-05-26T05:49:35.237Z,1026.51
2018-05-26T05:51:02.762Z,1026.50
2018-05-26T05:52:30.312Z,1026.49
2018-05-26T05:53:57.597Z,1026.45
2018-05-26T05:55:25.102Z,1026.42
2018-05-26T05:56:52.542Z,1026.39
2018-05-26T05:58:19.792Z,1026.39
2018-05-26T05:59:47.345Z,1026.35
2018-05-26T06:01:14.759Z,1026.35
2018-05-26T06:02:42.114Z,1026.41
2018-05-26T06:04:09.879Z,1026.45
2018-05-26T06:05:37.112Z,1026.45
2018-05-26T06:07:04.626Z,1026.51
2018-05-26T06:08:32.157Z,1026.51
2018-05-26T06:09:59.644Z,1026.51
2018-05-26T06:11:27.172Z,1026.51
2018-05-26T06:12:54.441Z,1026.52
2018-05-26T06:14:22.012Z,1026.61
2018-05-26T06:15:49.377Z,1026.57
2018-05-26T06:17:16.883Z,1026.53
2018-05-26T06:18:44.419Z,1026.48
2018-05-26T06:20:12.035Z,1026.43
2018-05-26T06:21:39.405Z,1026.38
2018-05-26T06:23:07.034Z,1026.37
2018-05-26T06:24:34.464Z,1026.34
2018-05-26T06:26:02.037Z,1026.34
2018-05-26T06:27:29.637Z,1026.37
2018-05-26T06:28:57.107Z,1026.38
2018-05-26T06:30:24.574Z,1026.43
2018-05-26T06:31:52.056Z,1026.46
2018-05-26T06:33:19.344Z,1026.45
2018-05-26T06:34:46.960Z,1026.49
2018-05-26T06:36:14.473Z,1026.48
2018-05-26T06:37:41.867Z,1026.45
2018-05-26T06:39:09.542Z,1026.46
2018-05-26T06:40:36.814Z,1026.45
2018-05-26T06:42:04.381Z,1026.44
2018-05-26T06:43:31.896Z,1026.45
2018-05-26T06:44:59.573Z,1026.45
2018-05-26T06:46:27.040Z,1026.42
2018-05-26T06:47:54.525Z,1026.40
2018-05-26T06:49:21.983Z,1026.42
2018-05-26T06:50:49.540Z,1026.42
2018-05-26T06:52:17.051Z,1026.47
2018-05-26T06:53:44.172Z,1026.48
2018-05-26T06:55:11.862Z,1026.52
2018-05-26T06:56:39.561Z,1026.56
2018-05-26T06:58:06.926Z,1026.56
2018-05-26T06:59:34.304Z,1026.55
2018-05-26T07:01:01.859Z,1026.60
2018-05-26T07:02:29.279Z,1026.63
2018-05-26T07:03:56.726Z,1026.52
2018-05-26T07:05:24.311Z,1026.44
2018-05-26T07:06:51.559Z,1026.39
2018-05-26T07:08:19.139Z,1026.37
2018-05-26T07:09:46.530Z,1026.38
2018-05-26T07:11:13.754Z,1026.31
2018-05-26T07:12:41.241Z,1026.25
2018-05-26T07:14:08.487Z,1026.22
2018-05-26T07:15:36.008Z,1026.20
2018-05-26T07:17:03.493Z,1026.18
2018-05-26T07:18:30.940Z,1026.25
2018-05-26T07:19:57.861Z,1026.35
2018-05-26T07:21:25.487Z,1026.44
2018-05-26T07:22:52.810Z,1026.51
2018-05-26T07:24:20.423Z,1026.52
2018-05-26T07:25:47.796Z,1026.49
2018-05-26T07:27:15.312Z,1026.47
2018-05-26T07:28:42.877Z,1026.41
2018-05-26T07:30:10.338Z,1026.41
2018-05-26T07:31:37.965Z,1026.45
2018-05-26T07:33:05.328Z,1026.47
2018-05-26T07:34:32.705Z,1026.45
2018-05-26T07:36:00.247Z,1026.47
2018-05-26T07:37:27.819Z,1026.50
2018-05-26T07:38:55.150Z,1026.48
2018-05-26T07:40:22.732Z,1026.46
2018-05-26T07:41:50.121Z,1026.41
2018-05-26T07:43:17.632Z,1026.37
2018-05-26T07:44:45.187Z,1026.35
2018-05-26T07:46:12.550Z,1026.33
2018-05-26T07:47:39.713Z,1026.37
2018-05-26T07:49:07.279Z,1026.39
2018-05-26T07:50:34.616Z,1026.40
2018-05-26T07:52:02.075Z,1026.42
2018-05-26T07:53:29.763Z,1026.41
2018-05-26T07:54:56.901Z,1026.34
2018-05-26T07:56:24.291Z,1026.34
2018-05-26T07:57:51.734Z,1026.33
2018-05-26T07:59:20.380Z,1026.28
2018-05-26T08:00:46.769Z,1026.23
2018-05-26T08:02:13.757Z,1026.28
2018-05-26T08:03:41.367Z,1026.29
2018-05-26T08:05:08.817Z,1026.23
2018-05-26T08:06:36.431Z,1026.20
2018-05-26T08:08:03.998Z,1026.19
2018-05-26T08:09:31.500Z,1026.17
2018-05-26T08:10:58.733Z,1026.16
2018-05-26T08:12:26.273Z,1026.15
2018-05-26T08:13:53.633Z,1026.13
2018-05-26T08:15:20.974Z,1026.16
2018-05-26T08:16:48.376Z,1026.18
2018-05-26T08:18:15.816Z,1026.18
2018-05-26T08:19:43.329Z,1026.17
2018-05-26T08:21:10.852Z,1026.19
2018-05-26T08:22:37.968Z,1026.19
2018-05-26T08:24:05.539Z,1026.19
2018-05-26T08:25:33.060Z,1026.22
2018-05-26T08:27:00.499Z,1026.18
2018-05-26T08:28:27.833Z,1026.17
2018-05-26T08:29:55.448Z,1026.15
2018-05-26T08:31:22.985Z,1026.13
2018-05-26T08:32:50.243Z,1026.16
2018-05-26T08:34:17.669Z,1026.18
2018-05-26T08:35:45.451Z,1026.17
2018-05-26T08:37:12.928Z,1026.15
2018-05-26T08:38:40.493Z,1026.17
2018-05-26T08:40:08.029Z,1026.14
2018-05-26T08:41:34.918Z,1026.16
2018-05-26T08:43:02.479Z,1026.16
2018-05-26T08:44:29.707Z,1026.18
2018-05-26T08:45:57.169Z,1026.19
2018-05-26T08:47:24.323Z,1026.22
2018-05-26T08:48:51.772Z,1026.22
2018-05-26T08:50:19.302Z,1026.20
2018-05-26T08:51:46.809Z,1026.24
2018-05-26T08:53:14.478Z,1026.24
2018-05-26T08:54:41.807Z,1026.24
2018-05-26T08:56:09.321Z,1026.29
2018-05-26T08:57:36.426Z,1026.29
2018-05-26T08:59:03.862Z,1026.27
2018-05-26T09:00:31.213Z,1026.26
2018-05-26T09:01:58.759Z,1026.24
2018-05-26T09:03:26.162Z,1026.25
2018-05-26T09:04:53.733Z,1026.23
2018-05-26T09:06:21.151Z,1026.23
2018-05-26T09:07:48.503Z,1026.22
2018-05-26T09:09:16.246Z,1026.22
2018-05-26T09:10:43.671Z,1026.24
2018-05-26T09:12:10.576Z,1026.23
2018-05-26T09:13:38.223Z,1026.21
2018-05-26T09:15:05.656Z,1026.19
2018-05-26T09:16:32.931Z,1026.18
2018-05-26T09:18:00.495Z,1026.19
2018-05-26T09:19:27.951Z,1026.16
2018-05-26T09:20:55.548Z,1026.18
2018-05-26T09:22:23.049Z,1026.18
2018-05-26T09:23:50.231Z,1026.20
2018-05-26T09:25:17.811Z,1026.20
2018-05-26T09:26:45.267Z,1026.22
2018-05-26T09:28:12.973Z,1026.22
2018-05-26T09:29:40.415Z,1026.19
2018-05-26T09:31:07.878Z,1026.17
2018-05-26T09:32:35.473Z,1026.19
2018-05-26T09:34:02.997Z,1026.16
2018-05-26T09:35:30.458Z,1026.17
2018-05-26T09:36:58.049Z,1026.16
2018-05-26T09:38:25.483Z,1026.25
2018-05-26T09:39:52.943Z,1026.22
2018-05-26T09:41:20.284Z,1026.20
2018-05-26T09:42:47.810Z,1026.21
2018-05-26T09:44:15.535Z,1026.21
2018-05-26T09:45:43.045Z,1026.25
2018-05-26T09:47:10.464Z,1026.23
2018-05-26T09:48:38.149Z,1026.17
2018-05-26T09:50:05.647Z,1026.16
2018-05-26T09:51:32.985Z,1026.16
2018-05-26T09:53:00.336Z,1026.16
2018-05-26T09:54:27.963Z,1026.14
2018-05-26T09:55:55.463Z,1026.15
2018-05-26T09:57:22.518Z,1026.15
2018-05-26T09:58:49.857Z,1026.12
2018-05-26T10:00:17.225Z,1026.08
2018-05-26T10:01:44.636Z,1026.08
2018-05-26T10:03:12.252Z,1026.08
2018-05-26T10:04:40.012Z,1026.07
2018-05-26T10:06:07.368Z,1026.05
2018-05-26T10:07:35.001Z,1026.03
2018-05-26T10:09:02.649Z,1026.03
2018-05-26T10:10:30.179Z,1026.03
2018-05-26T10:11:57.658Z,1026.04
2018-05-26T10:13:25.167Z,1026.03
2018-05-26T10:14:52.663Z,1026.05
2018-05-26T10:16:20.235Z,1026.06
2018-05-26T10:17:47.898Z,1026.04
2018-05-26T10:19:15.393Z,1026.07
2018-05-26T10:20:42.522Z,1026.08
2018-05-26T10:22:09.715Z,1026.10
2018-05-26T10:23:36.982Z,1026.07
2018-05-26T10:25:04.440Z,1026.04
2018-05-26T10:26:31.826Z,1026.04
2018-05-26T10:27:59.372Z,1026.03
2018-05-26T10:29:27.036Z,1026.01
2018-05-26T10:30:54.397Z,1026.00
2018-05-26T10:32:21.785Z,1026.01
2018-05-26T10:33:49.132Z,1026.03
2018-05-26T10:35:15.982Z,1026.01
2018-05-26T10:36:43.613Z,1025.99
2018-05-26T10:38:11.094Z,1025.98
2018-05-26T10:39:38.563Z,1026.01
2018-05-26T10:41:06.330Z,1026.01
2018-05-26T10:42:33.858Z,1026.03
2018-05-26T10:44:00.880Z,1025.99
2018-05-26T10:45:28.553Z,1026.03
2018-05-26T10:46:56.111Z,1026.02
2018-05-26T10:48:20.404Z,1025.96
2018-05-26T10:49:50.308Z,1025.91
2018-05-26T10:51:17.761Z,1025.96
2018-05-26T10:52:45.212Z,1025.98
2018-05-26T10:54:12.922Z,1025.95
2018-05-26T10:55:40.508Z,1025.95
2018-05-26T10:57:10.931Z,1025.93
2018-05-26T10:58:35.550Z,1025.96
2018-05-26T11:00:02.524Z,1025.92
2018-05-26T11:01:29.958Z,1025.89
2018-05-26T11:02:57.477Z,1025.91
2018-05-26T11:04:25.097Z,1025.86
2018-05-26T11:05:52.586Z,1025.84
2018-05-26T11:07:20.200Z,1025.78
2018-05-26T11:08:47.783Z,1025.80
2018-05-26T11:10:15.465Z,1025.74
2018-05-26T11:11:43.140Z,1025.73
2018-05-26T11:13:10.444Z,1025.68
2018-05-26T11:14:38.315Z,1025.69
2018-05-26T11:16:05.942Z,1025.70
2018-05-26T11:17:33.108Z,1025.70
2018-05-26T11:19:00.911Z,1025.71
2018-05-26T11:20:28.480Z,1025.70
2018-05-26T11:21:56.155Z,1025.76
2018-05-26T11:23:23.732Z,1025.79
2018-05-26T11:24:50.887Z,1025.78
2018-05-26T11:26:18.474Z,1025.76
2018-05-26T11:27:46.026Z,1025.73
2018-05-26T11:29:13.684Z,1025.72
2018-05-26T11:30:41.362Z,1025.72
2018-05-26T11:32:08.944Z,1025.67
2018-05-26T11:33:36.218Z,1025.69
2018-05-26T11:35:03.832Z,1025.67
2018-05-26T11:36:31.451Z,1025.71
2018-05-26T11:37:59.043Z,1025.67
2018-05-26T11:39:26.675Z,1025.66
2018-05-26T11:40:54.375Z,1025.63
2018-05-26T11:42:21.613Z,1025.61
2018-05-26T11:43:48.788Z,1025.60
2018-05-26T11:45:16.096Z,1025.56
2018-05-26T11:46:43.524Z,1025.53
2018-05-26T11:48:10.913Z,1025.54
2018-05-26T11:49:38.520Z,1025.51
2018-05-26T11:51:06.219Z,1025.54
2018-05-26T11:52:33.658Z,1025.59
2018-05-26T11:54:01.335Z,1025.58
2018-05-26T11:55:28.917Z,1025.56
2018-05-26T11:56:56.468Z,1025.56
2018-05-26T11:58:23.748Z,1025.51
2018-05-26T11:59:51.326Z,1025.57
2018-05-26T12:01:18.904Z,1025.52
2018-05-26T12:02:46.645Z,1025.49
2018-05-26T12:04:14.164Z,1025.45
2018-05-26T12:05:41.485Z,1025.47
2018-05-26T12:07:09.195Z,1025.51
2018-05-26T12:08:36.778Z,1025.48
2018-05-26T12:10:03.655Z,1025.47
2018-05-26T12:11:30.754Z,1025.47
2018-05-26T12:12:57.935Z,1025.48
2018-05-26T12:14:25.609Z,1025.44
2018-05-26T12:15:52.969Z,1025.46
2018-05-26T12:17:20.658Z,1025.47
2018-05-26T12:18:48.199Z,1025.45
2018-05-26T12:20:15.888Z,1025.46
2018-05-26T12:21:43.571Z,1025.44
2018-05-26T12:23:10.732Z,1025.46
2018-05-26T12:24:38.216Z,1025.47
2018-05-26T12:26:05.751Z,1025.48
2018-05-26T12:27:33.501Z,1025.48
2018-05-26T12:29:01.081Z,1025.47
2018-05-26T12:30:28.344Z,1025.45
2018-05-26T12:31:56.045Z,1025.42
2018-05-26T12:33:23.641Z,1025.36
2018-05-26T12:34:50.951Z,1025.40
2018-05-26T12:36:18.728Z,1025.39
2018-05-26T12:37:46.426Z,1025.41
2018-05-26T12:39:13.914Z,1025.38
2018-05-26T12:40:41.483Z,1025.39
2018-05-26T12:42:09.099Z,1025.41
2018-05-26T12:43:36.736Z,1025.38
2018-05-26T12:45:04.287Z,1025.38
2018-05-26T12:46:31.888Z,1025.36
2018-05-26T12:47:59.454Z,1025.36
2018-05-26T12:49:27.282Z,1025.33
2018-05-26T12:50:54.851Z,1025.33
2018-05-26T12:52:22.502Z,1025.30
2018-05-26T12:53:50.135Z,1025.28
2018-05-26T12:55:17.483Z,1025.31
2018-05-26T12:56:45.078Z,1025.27
2018-05-26T12:58:12.610Z,1025.32
2018-05-26T12:59:40.268Z,1025.32
2018-05-26T13:01:07.854Z,1025.32
2018-05-26T13:02:35.449Z,1025.37
2018-05-26T13:04:03.142Z,1025.35
2018-05-26T13:05:30.832Z,1025.38
2018-05-26T13:06:58.376Z,1025.36
2018-05-26T13:08:26.093Z,1025.43
2018-05-26T13:09:53.757Z,1025.40
2018-05-26T13:11:20.942Z,1025.39
2018-05-26T13:12:48.696Z,1025.38
2018-05-26T13:14:16.276Z,1025.32
2018-05-26T13:15:44.036Z,1025.36
2018-05-26T13:17:11.623Z,1025.34
2018-05-26T13:18:39.136Z,1025.34
2018-05-26T13:20:06.798Z,1025.33
2018-05-26T13:21:34.447Z,1025.32
2018-05-26T13:23:01.944Z,1025.29
2018-05-26T13:24:29.667Z,1025.29
2018-05-26T13:25:57.233Z,1025.28
2018-05-26T13:27:24.792Z,1025.28
2018-05-26T13:28:52.189Z,1025.29
2018-05-26T13:30:19.951Z,1025.29
2018-05-26T13:31:47.626Z,1025.28
2018-05-26T13:33:15.180Z,1025.30
2018-05-26T13:34:42.767Z,1025.31
2018-05-26T13:36:10.433Z,1025.31
2018-05-26T13:37:37.999Z,1025.33
2018-05-26T13:39:05.632Z,1025.29
2018-05-26T13:40:33.253Z,1025.31
2018-05-26T13:42:00.364Z,1025.29
2018-05-26T13:43:28.096Z,1025.31
2018-05-26T13:44:55.209Z,1025.30
2018-05-26T13:46:22.864Z,1025.30
2018-05-26T13:47:49.810Z,1025.30
2018-05-26T13:49:17.434Z,1025.30
2018-05-26T13:50:44.912Z,1025.30
2018-05-26T13:52:12.461Z,1025.30
2018-05-26T13:53:40.092Z,1025.32
2018-05-26T13:55:07.727Z,1025.31
2018-05-26T13:56:35.240Z,1025.29
2018-05-26T13:58:02.706Z,1025.28
2018-05-26T13:59:30.327Z,1025.27
2018-05-26T14:00:57.934Z,1025.25
2018-05-26T14:02:25.480Z,1025.25
2018-05-26T14:03:52.999Z,1025.27
2018-05-26T14:05:20.328Z,1025.24
2018-05-26T14:06:47.674Z,1025.26
2018-05-26T14:08:14.517Z,1025.28
2018-05-26T14:09:42.065Z,1025.28
2018-05-26T14:11:09.681Z,1025.28
2018-05-26T14:12:37.183Z,1025.26
2018-05-26T14:14:04.851Z,1025.27
2018-05-26T14:15:32.567Z,1025.30
2018-05-26T14:17:00.020Z,1025.31
2018-05-26T14:18:27.546Z,1025.37
2018-05-26T14:19:55.214Z,1025.41
2018-05-26T14:21:22.809Z,1025.45
2018-05-26T14:22:50.137Z,1025.42
2018-05-26T14:24:17.475Z,1025.43
2018-05-26T14:25:44.565Z,1025.40
2018-05-26T14:27:12.133Z,1025.38
2018-05-26T14:28:39.650Z,1025.37
2018-05-26T14:30:07.021Z,1025.37
2018-05-26T14:31:34.455Z,1025.42
2018-05-26T14:33:01.900Z,1025.45
2018-05-26T14:34:29.649Z,1025.46
2018-05-26T14:35:57.069Z,1025.47
2018-05-26T14:37:24.759Z,1025.49
2018-05-26T14:38:51.761Z,1025.49
2018-05-26T14:40:19.080Z,1025.49
2018-05-26T14:41:46.601Z,1025.49
2018-05-26T14:43:14.159Z,1025.51
2018-05-26T14:44:41.842Z,1025.52
2018-05-26T14:46:09.471Z,1025.52
2018-05-26T14:47:37.033Z,1025.56
2018-05-26T14:49:04.685Z,1025.56
2018-05-26T14:50:32.113Z,1025.58
2018-05-26T14:51:59.216Z,1025.59
2018-05-26T14:53:26.479Z,1025.65
2018-05-26T14:54:54.207Z,1025.72
2018-05-26T14:56:21.489Z,1025.74
2018-05-26T14:57:48.989Z,1025.83
2018-05-26T14:59:16.493Z,1025.87
2018-05-26T15:00:44.086Z,1025.90
2018-05-26T15:02:11.514Z,1025.91
2018-05-26T15:03:38.967Z,1025.93
2018-05-26T15:05:05.410Z,1025.88
2018-05-26T15:06:33.002Z,1025.91
2018-05-26T15:08:00.507Z,1025.88
2018-05-26T15:09:28.009Z,1025.88
2018-05-26T15:10:55.373Z,1025.89
2018-05-26T15:12:22.791Z,1025.90
2018-05-26T15:13:50.419Z,1025.92
2018-05-26T15:15:18.054Z,1025.91
2018-05-26T15:16:45.536Z,1025.91
2018-05-26T15:18:12.411Z,1025.91
2018-05-26T15:19:39.985Z,1025.85
2018-05-26T15:21:06.974Z,1025.83
2018-05-26T15:22:34.563Z,1025.79
2018-05-26T15:24:01.504Z,1025.73
2018-05-26T15:25:29.092Z,1025.73
2018-05-26T15:26:56.700Z,1025.69
2018-05-26T15:28:24.144Z,1025.67
2018-05-26T15:29:51.565Z,1025.71
2018-05-26T15:31:19.010Z,1025.69
2018-05-26T15:32:46.491Z,1025.70
2018-05-26T15:34:13.893Z,1025.67
2018-05-26T15:35:41.495Z,1025.64
2018-05-26T15:37:09.080Z,1025.60
2018-05-26T15:38:36.478Z,1025.59
2018-05-26T15:40:04.031Z,1025.59
2018-05-26T15:41:31.593Z,1025.62
2018-05-26T15:42:58.531Z,1025.62
2018-05-26T15:44:25.756Z,1025.59
2018-05-26T15:45:53.329Z,1025.59
2018-05-26T15:47:20.856Z,1025.57
2018-05-26T15:48:48.325Z,1025.55
2018-05-26T15:50:15.992Z,1025.56
2018-05-26T15:51:42.714Z,1025.56
2018-05-26T15:53:10.275Z,1025.55
2018-05-26T15:54:37.572Z,1025.52
2018-05-26T15:56:05.257Z,1025.51
2018-05-26T15:57:33.060Z,1025.48
2018-05-26T15:59:00.558Z,1025.46
2018-05-26T16:00:28.191Z,1025.45
2018-05-26T16:01:55.790Z,1025.48
2018-05-26T16:03:23.265Z,1025.50
2018-05-26T16:04:50.107Z,1025.53
2018-05-26T16:06:17.732Z,1025.55
2018-05-26T16:07:45.196Z,1025.59
2018-05-26T16:09:12.884Z,1025.61
2018-05-26T16:10:40.240Z,1025.62
2018-05-26T16:12:07.966Z,1025.64
2018-05-26T16:13:35.577Z,1025.64
2018-05-26T16:15:02.955Z,1025.61
2018-05-26T16:16:30.456Z,1025.59
2018-05-26T16:17:57.817Z,1025.59
2018-05-26T16:19:25.155Z,1025.63
2018-05-26T16:20:52.741Z,1025.70
2018-05-26T16:22:19.973Z,1025.73
2018-05-26T16:23:47.531Z,1025.74
2018-05-26T16:25:15.040Z,1025.75
2018-05-26T16:26:42.517Z,1025.73
2018-05-26T16:28:09.865Z,1025.74
2018-05-26T16:29:37.255Z,1025.78
2018-05-26T16:31:04.808Z,1025.79
2018-05-26T16:32:32.337Z,1025.79
2018-05-26T16:33:59.790Z,1025.76
2018-05-26T16:35:27.276Z,1025.73
2018-05-26T16:36:54.965Z,1025.70
2018-05-26T16:38:22.335Z,1025.67
2018-05-26T16:39:49.996Z,1025.68
2018-05-26T16:41:17.621Z,1025.69
2018-05-26T16:42:44.784Z,1025.70
2018-05-26T16:44:12.346Z,1025.70
2018-05-26T16:45:39.816Z,1025.70
2018-05-26T16:47:07.319Z,1025.73
2018-05-26T16:48:35.145Z,1025.74
2018-05-26T16:50:02.422Z,1025.75
2018-05-26T16:51:29.915Z,1025.73
2018-05-26T16:52:57.102Z,1025.70
2018-05-26T16:54:24.636Z,1025.69
2018-05-26T16:55:51.757Z,1025.71
2018-05-26T16:57:19.323Z,1025.73
2018-05-26T16:58:46.879Z,1025.78
2018-05-26T17:00:14.496Z,1025.81
2018-05-26T17:01:42.006Z,1025.83
2018-05-26T17:03:09.546Z,1025.84
2018-05-26T17:04:37.241Z,1025.83
2018-05-26T17:06:04.626Z,1025.84
2018-05-26T17:07:32.064Z,1025.84
2018-05-26T17:08:59.633Z,1025.86
2018-05-26T17:10:27.057Z,1025.87
2018-05-26T17:11:54.272Z,1025.89
2018-05-26T17:13:21.951Z,1025.86
2018-05-26T17:14:49.053Z,1025.88
2018-05-26T17:16:16.664Z,1025.89
2018-05-26T17:17:43.809Z,1025.87
2018-05-26T17:19:11.232Z,1025.87
2018-05-26T17:20:38.647Z,1025.87
2018-05-26T17:22:05.971Z,1025.87
2018-05-26T17:23:33.569Z,1025.89
2018-05-26T17:25:00.863Z,1025.91
2018-05-26T17:26:28.331Z,1025.89
2018-05-26T17:27:55.629Z,1025.90
2018-05-26T17:29:23.150Z,1025.91
2018-05-26T17:30:50.670Z,1025.94
2018-05-26T17:32:18.100Z,1025.95
2018-05-26T17:33:45.843Z,1025.96
2018-05-26T17:35:13.250Z,1025.97
2018-05-26T17:36:40.679Z,1025.97